sensor_id;sensor_type;location;lat;lon;timestamp;P1;durP1;ratioP1;P2;durP2;ratioP2
4569;SDS011;2297;51.442;6.996;2022-07-15T00:02:00;5.32;;;2.50;;
4569;SDS011;2297;51.442;6.996;2022-07-15T00:04:26;7.38;;;2.55;;
4569;SDS011;2297;51.442;6.996;2022-07-15T00:06:53;8.27;;;2.92;;
4569;SDS011;2297;51.442;6.996;2022-07-15T00:09:20;6.93;;;2.78;;
4569;SDS011;2297;51.442;6.996;2022-07-15T00:12:06;7.00;;;2.90;;
4569;SDS011;2297;51.442;6.996;2022-07-15T00:14:33;8.98;;;2.90;;
4569;SDS011;2297;51.442;6.996;2022-07-15T00:17:01;9.43;;;3.00;;
4569;SDS011;2297;51.442;6.996;2022-07-15T00:19:28;11.00;;;3.22;;
4569;SDS011;2297;51.442;6.996;2022-07-15T00:21:54;8.77;;;2.97;;
4569;SDS011;2297;51.442;6.996;2022-07-15T00:24:21;10.32;;;2.88;;
4569;SDS011;2297;51.442;6.996;2022-07-15T00:26:48;8.52;;;2.80;;
4569;SDS011;2297;51.442;6.996;2022-07-15T00:29:15;11.20;;;2.78;;
4569;SDS011;2297;51.442;6.996;2022-07-15T00:31:42;6.07;;;2.60;;
4569;SDS011;2297;51.442;6.996;2022-07-15T00:34:10;6.78;;;2.60;;
4569;SDS011;2297;51.442;6.996;2022-07-15T00:36:36;7.60;;;2.60;;
4569;SDS011;2297;51.442;6.996;2022-07-15T00:39:03;7.40;;;2.92;;
4569;SDS011;2297;51.442;6.996;2022-07-15T00:41:35;8.13;;;2.40;;
4569;SDS011;2297;51.442;6.996;2022-07-15T00:44:02;10.43;;;2.78;;
4569;SDS011;2297;51.442;6.996;2022-07-15T00:46:29;11.48;;;2.67;;
4569;SDS011;2297;51.442;6.996;2022-07-15T00:48:56;7.43;;;2.80;;
4569;SDS011;2297;51.442;6.996;2022-07-15T00:51:25;7.05;;;2.40;;
4569;SDS011;2297;51.442;6.996;2022-07-15T00:53:52;6.10;;;2.40;;
4569;SDS011;2297;51.442;6.996;2022-07-15T00:56:21;8.82;;;2.70;;
4569;SDS011;2297;51.442;6.996;2022-07-15T00:58:51;3.55;;;1.88;;
4569;SDS011;2297;51.442;6.996;2022-07-15T01:01:19;7.45;;;2.78;;
4569;SDS011;2297;51.442;6.996;2022-07-15T01:03:46;8.85;;;2.50;;
4569;SDS011;2297;51.442;6.996;2022-07-15T01:06:14;9.10;;;2.45;;
4569;SDS011;2297;51.442;6.996;2022-07-15T01:08:43;7.53;;;2.38;;
4569;SDS011;2297;51.442;6.996;2022-07-15T01:11:09;5.85;;;2.20;;
4569;SDS011;2297;51.442;6.996;2022-07-15T01:13:36;8.35;;;2.35;;
4569;SDS011;2297;51.442;6.996;2022-07-15T01:16:03;8.70;;;2.42;;
4569;SDS011;2297;51.442;6.996;2022-07-15T01:18:31;6.32;;;2.17;;
4569;SDS011;2297;51.442;6.996;2022-07-15T01:20:59;7.82;;;2.08;;
4569;SDS011;2297;51.442;6.996;2022-07-15T01:23:25;8.07;;;2.25;;
4569;SDS011;2297;51.442;6.996;2022-07-15T01:25:52;11.63;;;2.47;;
4569;SDS011;2297;51.442;6.996;2022-07-15T01:28:19;8.63;;;2.20;;
4569;SDS011;2297;51.442;6.996;2022-07-15T01:30:46;6.95;;;2.70;;
4569;SDS011;2297;51.442;6.996;2022-07-15T01:33:12;6.78;;;2.20;;
4569;SDS011;2297;51.442;6.996;2022-07-15T01:35:39;6.55;;;2.45;;
4569;SDS011;2297;51.442;6.996;2022-07-15T01:38:08;5.75;;;2.20;;
4569;SDS011;2297;51.442;6.996;2022-07-15T01:40:35;16.55;;;2.63;;
4569;SDS011;2297;51.442;6.996;2022-07-15T01:43:02;5.00;;;2.13;;
4569;SDS011;2297;51.442;6.996;2022-07-15T01:45:28;6.13;;;2.17;;
4569;SDS011;2297;51.442;6.996;2022-07-15T01:47:55;8.80;;;2.60;;
4569;SDS011;2297;51.442;6.996;2022-07-15T01:50:22;7.70;;;2.40;;
4569;SDS011;2297;51.442;6.996;2022-07-15T01:52:48;6.82;;;2.40;;
4569;SDS011;2297;51.442;6.996;2022-07-15T01:55:17;8.65;;;2.47;;
4569;SDS011;2297;51.442;6.996;2022-07-15T01:57:44;7.32;;;2.42;;
4569;SDS011;2297;51.442;6.996;2022-07-15T02:00:11;9.02;;;2.58;;
4569;SDS011;2297;51.442;6.996;2022-07-15T02:02:41;8.98;;;2.80;;
4569;SDS011;2297;51.442;6.996;2022-07-15T02:05:08;6.00;;;2.42;;
4569;SDS011;2297;51.442;6.996;2022-07-15T02:07:34;6.60;;;2.25;;
4569;SDS011;2297;51.442;6.996;2022-07-15T02:10:02;7.03;;;2.83;;
4569;SDS011;2297;51.442;6.996;2022-07-15T02:12:30;6.50;;;2.42;;
4569;SDS011;2297;51.442;6.996;2022-07-15T02:14:57;9.38;;;2.85;;
4569;SDS011;2297;51.442;6.996;2022-07-15T02:17:24;6.32;;;2.50;;
4569;SDS011;2297;51.442;6.996;2022-07-15T02:19:50;7.97;;;2.47;;
4569;SDS011;2297;51.442;6.996;2022-07-15T02:22:17;8.23;;;2.40;;
4569;SDS011;2297;51.442;6.996;2022-07-15T02:24:43;11.02;;;2.88;;
4569;SDS011;2297;51.442;6.996;2022-07-15T02:27:10;19.95;;;3.00;;
4569;SDS011;2297;51.442;6.996;2022-07-15T02:29:38;6.18;;;2.42;;
4569;SDS011;2297;51.442;6.996;2022-07-15T02:32:05;5.38;;;2.30;;
4569;SDS011;2297;51.442;6.996;2022-07-15T02:34:32;7.90;;;2.53;;
4569;SDS011;2297;51.442;6.996;2022-07-15T02:36:58;9.38;;;2.80;;
4569;SDS011;2297;51.442;6.996;2022-07-15T02:39:25;8.63;;;2.88;;
4569;SDS011;2297;51.442;6.996;2022-07-15T02:41:52;5.53;;;2.50;;
4569;SDS011;2297;51.442;6.996;2022-07-15T02:44:18;9.75;;;2.80;;
4569;SDS011;2297;51.442;6.996;2022-07-15T02:46:46;5.63;;;2.28;;
4569;SDS011;2297;51.442;6.996;2022-07-15T02:49:13;6.80;;;2.45;;
4569;SDS011;2297;51.442;6.996;2022-07-15T02:51:40;8.50;;;3.20;;
4569;SDS011;2297;51.442;6.996;2022-07-15T02:54:06;5.82;;;2.20;;
4569;SDS011;2297;51.442;6.996;2022-07-15T02:56:33;6.93;;;2.80;;
4569;SDS011;2297;51.442;6.996;2022-07-15T02:59:00;9.23;;;2.78;;
4569;SDS011;2297;51.442;6.996;2022-07-15T03:01:26;7.20;;;2.70;;
4569;SDS011;2297;51.442;6.996;2022-07-15T03:03:54;7.57;;;2.60;;
4569;SDS011;2297;51.442;6.996;2022-07-15T03:06:21;8.52;;;2.28;;
4569;SDS011;2297;51.442;6.996;2022-07-15T03:08:48;8.20;;;2.80;;
4569;SDS011;2297;51.442;6.996;2022-07-15T03:11:24;6.13;;;2.40;;
4569;SDS011;2297;51.442;6.996;2022-07-15T03:13:51;5.90;;;2.85;;
4569;SDS011;2297;51.442;6.996;2022-07-15T03:16:17;5.80;;;2.78;;
4569;SDS011;2297;51.442;6.996;2022-07-15T03:18:44;12.30;;;2.75;;
4569;SDS011;2297;51.442;6.996;2022-07-15T03:21:12;7.28;;;2.60;;
4569;SDS011;2297;51.442;6.996;2022-07-15T03:23:39;4.88;;;2.08;;
4569;SDS011;2297;51.442;6.996;2022-07-15T03:26:06;7.50;;;2.65;;
4569;SDS011;2297;51.442;6.996;2022-07-15T03:28:32;7.50;;;2.72;;
4569;SDS011;2297;51.442;6.996;2022-07-15T03:30:59;4.97;;;2.30;;
4569;SDS011;2297;51.442;6.996;2022-07-15T03:33:26;5.00;;;2.30;;
4569;SDS011;2297;51.442;6.996;2022-07-15T03:35:52;8.70;;;3.15;;
4569;SDS011;2297;51.442;6.996;2022-07-15T03:38:20;4.60;;;2.28;;
4569;SDS011;2297;51.442;6.996;2022-07-15T03:40:48;6.65;;;2.53;;
4569;SDS011;2297;51.442;6.996;2022-07-15T03:43:15;8.32;;;2.90;;
4569;SDS011;2297;51.442;6.996;2022-07-15T03:45:42;8.02;;;2.70;;
4569;SDS011;2297;51.442;6.996;2022-07-15T03:48:08;8.23;;;2.90;;
4569;SDS011;2297;51.442;6.996;2022-07-15T03:50:35;11.07;;;2.53;;
4569;SDS011;2297;51.442;6.996;2022-07-15T03:53:02;9.60;;;2.60;;
4569;SDS011;2297;51.442;6.996;2022-07-15T03:55:30;12.57;;;3.03;;
4569;SDS011;2297;51.442;6.996;2022-07-15T03:57:56;7.95;;;2.50;;
4569;SDS011;2297;51.442;6.996;2022-07-15T04:00:23;7.15;;;2.53;;
4569;SDS011;2297;51.442;6.996;2022-07-15T04:02:50;4.50;;;2.55;;
4569;SDS011;2297;51.442;6.996;2022-07-15T04:05:16;6.72;;;2.35;;
4569;SDS011;2297;51.442;6.996;2022-07-15T04:07:43;7.60;;;2.70;;
4569;SDS011;2297;51.442;6.996;2022-07-15T04:10:10;8.63;;;3.00;;
4569;SDS011;2297;51.442;6.996;2022-07-15T04:12:38;9.43;;;2.35;;
4569;SDS011;2297;51.442;6.996;2022-07-15T04:15:06;7.70;;;2.97;;
4569;SDS011;2297;51.442;6.996;2022-07-15T04:17:34;5.85;;;2.40;;
4569;SDS011;2297;51.442;6.996;2022-07-15T04:20:01;6.63;;;2.70;;
4569;SDS011;2297;51.442;6.996;2022-07-15T04:22:28;5.38;;;2.67;;
4569;SDS011;2297;51.442;6.996;2022-07-15T04:24:55;8.90;;;3.00;;
4569;SDS011;2297;51.442;6.996;2022-07-15T04:27:22;10.10;;;2.75;;
4569;SDS011;2297;51.442;6.996;2022-07-15T04:29:50;6.88;;;2.50;;
4569;SDS011;2297;51.442;6.996;2022-07-15T04:32:17;7.03;;;3.00;;
4569;SDS011;2297;51.442;6.996;2022-07-15T04:34:44;11.43;;;3.20;;
4569;SDS011;2297;51.442;6.996;2022-07-15T04:37:10;4.78;;;2.95;;
4569;SDS011;2297;51.442;6.996;2022-07-15T04:39:37;8.65;;;3.13;;
4569;SDS011;2297;51.442;6.996;2022-07-15T04:42:03;12.23;;;3.60;;
4569;SDS011;2297;51.442;6.996;2022-07-15T04:44:30;8.65;;;3.65;;
4569;SDS011;2297;51.442;6.996;2022-07-15T04:46:58;9.60;;;3.40;;
4569;SDS011;2297;51.442;6.996;2022-07-15T04:49:27;8.43;;;3.08;;
4569;SDS011;2297;51.442;6.996;2022-07-15T04:52:11;8.27;;;3.20;;
4569;SDS011;2297;51.442;6.996;2022-07-15T04:54:38;7.22;;;2.78;;
4569;SDS011;2297;51.442;6.996;2022-07-15T04:57:05;12.73;;;3.85;;
4569;SDS011;2297;51.442;6.996;2022-07-15T04:59:31;7.95;;;2.70;;
4569;SDS011;2297;51.442;6.996;2022-07-15T05:01:59;9.27;;;3.40;;
4569;SDS011;2297;51.442;6.996;2022-07-15T05:04:26;9.38;;;3.15;;
4569;SDS011;2297;51.442;6.996;2022-07-15T05:06:53;12.55;;;3.67;;
4569;SDS011;2297;51.442;6.996;2022-07-15T05:09:19;8.30;;;2.85;;
4569;SDS011;2297;51.442;6.996;2022-07-15T05:11:46;9.55;;;3.38;;
4569;SDS011;2297;51.442;6.996;2022-07-15T05:14:13;13.70;;;3.63;;
4569;SDS011;2297;51.442;6.996;2022-07-15T05:16:39;7.00;;;2.75;;
4569;SDS011;2297;51.442;6.996;2022-07-15T05:19:07;7.95;;;3.22;;
4569;SDS011;2297;51.442;6.996;2022-07-15T05:21:34;8.57;;;2.70;;
4569;SDS011;2297;51.442;6.996;2022-07-15T05:24:01;9.55;;;2.85;;
4569;SDS011;2297;51.442;6.996;2022-07-15T05:26:27;7.45;;;2.78;;
4569;SDS011;2297;51.442;6.996;2022-07-15T05:28:54;8.32;;;3.67;;
4569;SDS011;2297;51.442;6.996;2022-07-15T05:31:21;8.93;;;3.15;;
4569;SDS011;2297;51.442;6.996;2022-07-15T05:33:48;9.68;;;2.70;;
4569;SDS011;2297;51.442;6.996;2022-07-15T05:36:16;11.75;;;3.30;;
4569;SDS011;2297;51.442;6.996;2022-07-15T05:38:42;8.13;;;3.00;;
4569;SDS011;2297;51.442;6.996;2022-07-15T05:41:09;9.07;;;3.20;;
4569;SDS011;2297;51.442;6.996;2022-07-15T05:43:36;10.88;;;3.30;;
4569;SDS011;2297;51.442;6.996;2022-07-15T05:46:03;9.48;;;2.63;;
4569;SDS011;2297;51.442;6.996;2022-07-15T05:48:31;9.57;;;3.08;;
4569;SDS011;2297;51.442;6.996;2022-07-15T05:50:58;7.22;;;2.65;;
4569;SDS011;2297;51.442;6.996;2022-07-15T05:53:26;5.55;;;2.20;;
4569;SDS011;2297;51.442;6.996;2022-07-15T05:55:53;5.63;;;2.20;;
4569;SDS011;2297;51.442;6.996;2022-07-15T05:58:19;10.23;;;2.78;;
4569;SDS011;2297;51.442;6.996;2022-07-15T06:00:46;9.48;;;2.45;;
4569;SDS011;2297;51.442;6.996;2022-07-15T06:03:13;7.07;;;2.22;;
4569;SDS011;2297;51.442;6.996;2022-07-15T06:05:39;9.15;;;2.35;;
4569;SDS011;2297;51.442;6.996;2022-07-15T06:08:06;7.75;;;2.45;;
4569;SDS011;2297;51.442;6.996;2022-07-15T06:10:34;8.02;;;2.17;;
4569;SDS011;2297;51.442;6.996;2022-07-15T06:13:01;7.70;;;2.25;;
4569;SDS011;2297;51.442;6.996;2022-07-15T06:15:28;9.68;;;1.92;;
4569;SDS011;2297;51.442;6.996;2022-07-15T06:17:55;6.82;;;1.98;;
4569;SDS011;2297;51.442;6.996;2022-07-15T06:20:21;7.43;;;2.30;;
4569;SDS011;2297;51.442;6.996;2022-07-15T06:22:48;10.10;;;2.25;;
4569;SDS011;2297;51.442;6.996;2022-07-15T06:25:15;9.18;;;2.10;;
4569;SDS011;2297;51.442;6.996;2022-07-15T06:27:43;6.25;;;2.30;;
4569;SDS011;2297;51.442;6.996;2022-07-15T06:30:10;7.18;;;2.22;;
4569;SDS011;2297;51.442;6.996;2022-07-15T06:32:38;9.20;;;2.42;;
4569;SDS011;2297;51.442;6.996;2022-07-15T06:35:05;6.13;;;2.25;;
4569;SDS011;2297;51.442;6.996;2022-07-15T06:37:32;9.18;;;2.10;;
4569;SDS011;2297;51.442;6.996;2022-07-15T06:39:59;5.40;;;2.10;;
4569;SDS011;2297;51.442;6.996;2022-07-15T06:42:27;5.75;;;2.25;;
4569;SDS011;2297;51.442;6.996;2022-07-15T06:44:55;9.68;;;2.60;;
4569;SDS011;2297;51.442;6.996;2022-07-15T06:47:22;5.80;;;2.33;;
4569;SDS011;2297;51.442;6.996;2022-07-15T06:49:48;6.53;;;1.77;;
4569;SDS011;2297;51.442;6.996;2022-07-15T06:52:16;11.13;;;2.15;;
4569;SDS011;2297;51.442;6.996;2022-07-15T06:54:43;6.50;;;1.70;;
4569;SDS011;2297;51.442;6.996;2022-07-15T06:57:09;9.73;;;2.63;;
4569;SDS011;2297;51.442;6.996;2022-07-15T06:59:37;5.50;;;1.55;;
4569;SDS011;2297;51.442;6.996;2022-07-15T07:02:05;4.97;;;1.58;;
4569;SDS011;2297;51.442;6.996;2022-07-15T07:04:32;7.43;;;1.92;;
4569;SDS011;2297;51.442;6.996;2022-07-15T07:06:59;3.58;;;1.70;;
4569;SDS011;2297;51.442;6.996;2022-07-15T07:09:25;5.78;;;1.73;;
4569;SDS011;2297;51.442;6.996;2022-07-15T07:11:52;8.50;;;1.70;;
4569;SDS011;2297;51.442;6.996;2022-07-15T07:14:19;4.18;;;1.65;;
4569;SDS011;2297;51.442;6.996;2022-07-15T07:16:46;7.85;;;1.83;;
4569;SDS011;2297;51.442;6.996;2022-07-15T07:19:14;6.18;;;1.60;;
4569;SDS011;2297;51.442;6.996;2022-07-15T07:21:41;5.63;;;1.70;;
4569;SDS011;2297;51.442;6.996;2022-07-15T07:24:07;3.30;;;1.60;;
4569;SDS011;2297;51.442;6.996;2022-07-15T07:26:34;7.07;;;1.95;;
4569;SDS011;2297;51.442;6.996;2022-07-15T07:29:02;5.95;;;1.67;;
4569;SDS011;2297;51.442;6.996;2022-07-15T07:31:29;5.28;;;1.70;;
4569;SDS011;2297;51.442;6.996;2022-07-15T07:33:56;9.35;;;2.05;;
4569;SDS011;2297;51.442;6.996;2022-07-15T07:36:25;6.68;;;1.75;;
4569;SDS011;2297;51.442;6.996;2022-07-15T07:38:52;7.65;;;2.05;;
4569;SDS011;2297;51.442;6.996;2022-07-15T07:41:19;4.80;;;2.00;;
4569;SDS011;2297;51.442;6.996;2022-07-15T07:43:46;4.47;;;1.55;;
4569;SDS011;2297;51.442;6.996;2022-07-15T07:46:12;6.53;;;1.77;;
4569;SDS011;2297;51.442;6.996;2022-07-15T07:48:39;8.18;;;1.65;;
4569;SDS011;2297;51.442;6.996;2022-07-15T07:51:06;9.85;;;1.90;;
4569;SDS011;2297;51.442;6.996;2022-07-15T07:53:35;2.92;;;1.38;;
4569;SDS011;2297;51.442;6.996;2022-07-15T07:56:02;5.47;;;1.60;;
4569;SDS011;2297;51.442;6.996;2022-07-15T07:58:29;7.32;;;2.30;;
4569;SDS011;2297;51.442;6.996;2022-07-15T08:00:56;6.15;;;1.83;;
4569;SDS011;2297;51.442;6.996;2022-07-15T08:03:22;6.43;;;1.88;;
4569;SDS011;2297;51.442;6.996;2022-07-15T08:05:49;3.40;;;1.40;;
4569;SDS011;2297;51.442;6.996;2022-07-15T08:08:18;4.20;;;1.70;;
4569;SDS011;2297;51.442;6.996;2022-07-15T08:10:50;6.15;;;1.70;;
4569;SDS011;2297;51.442;6.996;2022-07-15T08:13:18;4.60;;;1.50;;
4569;SDS011;2297;51.442;6.996;2022-07-15T08:15:46;7.60;;;2.15;;
4569;SDS011;2297;51.442;6.996;2022-07-15T08:18:14;6.28;;;1.60;;
4569;SDS011;2297;51.442;6.996;2022-07-15T08:20:41;3.60;;;1.50;;
4569;SDS011;2297;51.442;6.996;2022-07-15T08:23:08;8.02;;;1.67;;
4569;SDS011;2297;51.442;6.996;2022-07-15T08:25:36;4.13;;;1.70;;
4569;SDS011;2297;51.442;6.996;2022-07-15T08:28:05;5.03;;;1.40;;
4569;SDS011;2297;51.442;6.996;2022-07-15T08:30:33;4.57;;;1.27;;
4569;SDS011;2297;51.442;6.996;2022-07-15T08:33:00;3.22;;;1.45;;
4569;SDS011;2297;51.442;6.996;2022-07-15T08:35:27;3.70;;;1.48;;
4569;SDS011;2297;51.442;6.996;2022-07-15T08:37:54;5.03;;;1.60;;
4569;SDS011;2297;51.442;6.996;2022-07-15T08:40:21;5.40;;;1.40;;
4569;SDS011;2297;51.442;6.996;2022-07-15T08:42:49;5.75;;;1.50;;
4569;SDS011;2297;51.442;6.996;2022-07-15T08:45:17;5.72;;;1.50;;
4569;SDS011;2297;51.442;6.996;2022-07-15T08:47:45;4.38;;;1.25;;
4569;SDS011;2297;51.442;6.996;2022-07-15T08:50:13;4.63;;;1.40;;
4569;SDS011;2297;51.442;6.996;2022-07-15T08:52:42;4.20;;;1.40;;
4569;SDS011;2297;51.442;6.996;2022-07-15T08:55:10;3.08;;;1.30;;
4569;SDS011;2297;51.442;6.996;2022-07-15T08:57:37;5.90;;;1.83;;
4569;SDS011;2297;51.442;6.996;2022-07-15T09:00:04;5.13;;;1.60;;
4569;SDS011;2297;51.442;6.996;2022-07-15T09:02:36;5.88;;;1.45;;
4569;SDS011;2297;51.442;6.996;2022-07-15T09:05:16;4.45;;;1.60;;
4569;SDS011;2297;51.442;6.996;2022-07-15T09:07:57;6.68;;;1.85;;
4569;SDS011;2297;51.442;6.996;2022-07-15T09:10:40;5.00;;;1.80;;
4569;SDS011;2297;51.442;6.996;2022-07-15T09:13:11;5.63;;;2.13;;
4569;SDS011;2297;51.442;6.996;2022-07-15T09:15:39;8.70;;;2.38;;
4569;SDS011;2297;51.442;6.996;2022-07-15T09:18:10;3.85;;;1.70;;
4569;SDS011;2297;51.442;6.996;2022-07-15T09:20:38;9.05;;;1.77;;
4569;SDS011;2297;51.442;6.996;2022-07-15T09:23:07;5.93;;;1.70;;
4569;SDS011;2297;51.442;6.996;2022-07-15T09:25:35;5.57;;;2.30;;
4569;SDS011;2297;51.442;6.996;2022-07-15T09:28:03;6.20;;;2.05;;
4569;SDS011;2297;51.442;6.996;2022-07-15T09:30:32;4.93;;;1.90;;
4569;SDS011;2297;51.442;6.996;2022-07-15T09:33:20;8.27;;;2.20;;
4569;SDS011;2297;51.442;6.996;2022-07-15T09:36:08;5.05;;;2.00;;
4569;SDS011;2297;51.442;6.996;2022-07-15T09:38:38;5.50;;;2.33;;
4569;SDS011;2297;51.442;6.996;2022-07-15T09:41:08;6.00;;;1.83;;
4569;SDS011;2297;51.442;6.996;2022-07-15T09:43:47;6.50;;;1.77;;
4569;SDS011;2297;51.442;6.996;2022-07-15T09:46:16;3.97;;;1.60;;
4569;SDS011;2297;51.442;6.996;2022-07-15T09:48:46;8.90;;;2.42;;
4569;SDS011;2297;51.442;6.996;2022-07-15T09:51:14;5.05;;;2.20;;
4569;SDS011;2297;51.442;6.996;2022-07-15T09:53:41;4.13;;;1.80;;
4569;SDS011;2297;51.442;6.996;2022-07-15T09:56:09;6.78;;;1.90;;
4569;SDS011;2297;51.442;6.996;2022-07-15T09:58:37;4.57;;;1.80;;
4569;SDS011;2297;51.442;6.996;2022-07-15T10:01:06;2.75;;;1.50;;
4569;SDS011;2297;51.442;6.996;2022-07-15T10:03:34;5.82;;;1.77;;
4569;SDS011;2297;51.442;6.996;2022-07-15T10:06:02;6.63;;;1.45;;
4569;SDS011;2297;51.442;6.996;2022-07-15T10:08:29;3.65;;;1.65;;
4569;SDS011;2297;51.442;6.996;2022-07-15T10:10:57;3.00;;;1.30;;
4569;SDS011;2297;51.442;6.996;2022-07-15T10:13:34;6.03;;;1.30;;
4569;SDS011;2297;51.442;6.996;2022-07-15T10:16:27;2.17;;;1.20;;
4569;SDS011;2297;51.442;6.996;2022-07-15T10:19:10;3.25;;;1.30;;
4569;SDS011;2297;51.442;6.996;2022-07-15T10:21:48;3.13;;;1.48;;
4569;SDS011;2297;51.442;6.996;2022-07-15T10:24:31;6.25;;;1.60;;
4569;SDS011;2297;51.442;6.996;2022-07-15T10:27:23;5.80;;;1.42;;
4569;SDS011;2297;51.442;6.996;2022-07-15T10:30:04;2.40;;;1.45;;
4569;SDS011;2297;51.442;6.996;2022-07-15T10:35:39;2.38;;;1.20;;
4569;SDS011;2297;51.442;6.996;2022-07-15T10:38:28;2.97;;;1.30;;
4569;SDS011;2297;51.442;6.996;2022-07-15T10:41:00;2.42;;;1.23;;
4569;SDS011;2297;51.442;6.996;2022-07-15T10:46:34;2.10;;;1.10;;
4569;SDS011;2297;51.442;6.996;2022-07-15T10:52:12;4.68;;;1.67;;
4569;SDS011;2297;51.442;6.996;2022-07-15T10:54:42;3.65;;;1.20;;
4569;SDS011;2297;51.442;6.996;2022-07-15T10:57:10;5.05;;;1.77;;
4569;SDS011;2297;51.442;6.996;2022-07-15T10:59:47;3.38;;;1.23;;
4569;SDS011;2297;51.442;6.996;2022-07-15T11:02:19;3.72;;;1.52;;
4569;SDS011;2297;51.442;6.996;2022-07-15T11:04:47;4.30;;;1.38;;
4569;SDS011;2297;51.442;6.996;2022-07-15T11:07:24;3.55;;;1.27;;
4569;SDS011;2297;51.442;6.996;2022-07-15T11:09:58;3.30;;;1.23;;
4569;SDS011;2297;51.442;6.996;2022-07-15T11:12:55;3.63;;;1.40;;
4569;SDS011;2297;51.442;6.996;2022-07-15T11:15:25;4.28;;;1.10;;
4569;SDS011;2297;51.442;6.996;2022-07-15T11:17:52;2.42;;;1.17;;
4569;SDS011;2297;51.442;6.996;2022-07-15T11:20:22;1.80;;;1.00;;
4569;SDS011;2297;51.442;6.996;2022-07-15T11:22:52;4.43;;;1.48;;
4569;SDS011;2297;51.442;6.996;2022-07-15T11:25:22;2.00;;;1.10;;
4569;SDS011;2297;51.442;6.996;2022-07-15T11:28:00;3.10;;;1.10;;
4569;SDS011;2297;51.442;6.996;2022-07-15T11:30:34;2.75;;;1.10;;
4569;SDS011;2297;51.442;6.996;2022-07-15T11:33:03;1.90;;;1.02;;
4569;SDS011;2297;51.442;6.996;2022-07-15T11:35:41;4.15;;;1.42;;
4569;SDS011;2297;51.442;6.996;2022-07-15T11:38:13;3.40;;;1.08;;
4569;SDS011;2297;51.442;6.996;2022-07-15T11:40:45;2.75;;;1.20;;
4569;SDS011;2297;51.442;6.996;2022-07-15T11:43:31;3.80;;;1.50;;
4569;SDS011;2297;51.442;6.996;2022-07-15T11:46:16;2.40;;;1.55;;
4569;SDS011;2297;51.442;6.996;2022-07-15T11:48:43;3.70;;;1.00;;
4569;SDS011;2297;51.442;6.996;2022-07-15T11:51:10;1.90;;;0.75;;
4569;SDS011;2297;51.442;6.996;2022-07-15T11:53:39;2.55;;;0.90;;
4569;SDS011;2297;51.442;6.996;2022-07-15T11:56:09;3.50;;;1.15;;
4569;SDS011;2297;51.442;6.996;2022-07-15T11:58:37;2.38;;;0.90;;
4569;SDS011;2297;51.442;6.996;2022-07-15T12:01:05;5.05;;;1.00;;
4569;SDS011;2297;51.442;6.996;2022-07-15T12:03:34;2.10;;;0.90;;
4569;SDS011;2297;51.442;6.996;2022-07-15T12:06:05;2.65;;;0.88;;
4569;SDS011;2297;51.442;6.996;2022-07-15T12:08:36;2.40;;;0.95;;
4569;SDS011;2297;51.442;6.996;2022-07-15T12:11:16;3.08;;;0.80;;
4569;SDS011;2297;51.442;6.996;2022-07-15T12:13:46;1.63;;;0.70;;
4569;SDS011;2297;51.442;6.996;2022-07-15T12:16:17;2.10;;;0.90;;
4569;SDS011;2297;51.442;6.996;2022-07-15T12:18:46;1.73;;;0.98;;
4569;SDS011;2297;51.442;6.996;2022-07-15T12:21:14;1.48;;;1.00;;
4569;SDS011;2297;51.442;6.996;2022-07-15T12:23:41;3.22;;;0.85;;
4569;SDS011;2297;51.442;6.996;2022-07-15T12:26:08;2.15;;;0.88;;
4569;SDS011;2297;51.442;6.996;2022-07-15T12:28:37;1.15;;;0.80;;
4569;SDS011;2297;51.442;6.996;2022-07-15T12:31:04;1.85;;;0.90;;
4569;SDS011;2297;51.442;6.996;2022-07-15T12:33:33;1.65;;;0.80;;
4569;SDS011;2297;51.442;6.996;2022-07-15T12:36:17;2.33;;;0.90;;
4569;SDS011;2297;51.442;6.996;2022-07-15T12:38:45;5.50;;;1.55;;
4569;SDS011;2297;51.442;6.996;2022-07-15T12:41:28;2.83;;;0.90;;
4569;SDS011;2297;51.442;6.996;2022-07-15T12:43:57;4.30;;;1.27;;
4569;SDS011;2297;51.442;6.996;2022-07-15T12:52:13;2.50;;;0.90;;
4569;SDS011;2297;51.442;6.996;2022-07-15T12:54:42;1.65;;;0.73;;
4569;SDS011;2297;51.442;6.996;2022-07-15T12:57:17;2.53;;;0.90;;
4569;SDS011;2297;51.442;6.996;2022-07-15T12:59:49;1.98;;;1.00;;
4569;SDS011;2297;51.442;6.996;2022-07-15T13:02:17;1.98;;;1.17;;
4569;SDS011;2297;51.442;6.996;2022-07-15T13:04:43;2.47;;;0.90;;
4569;SDS011;2297;51.442;6.996;2022-07-15T13:07:10;2.60;;;0.88;;
4569;SDS011;2297;51.442;6.996;2022-07-15T13:09:37;2.45;;;0.90;;
4569;SDS011;2297;51.442;6.996;2022-07-15T13:12:04;1.20;;;0.80;;
4569;SDS011;2297;51.442;6.996;2022-07-15T13:14:31;2.70;;;0.88;;
4569;SDS011;2297;51.442;6.996;2022-07-15T13:16:59;1.40;;;0.73;;
4569;SDS011;2297;51.442;6.996;2022-07-15T13:19:25;1.58;;;0.77;;
4569;SDS011;2297;51.442;6.996;2022-07-15T13:21:52;1.38;;;1.00;;
4569;SDS011;2297;51.442;6.996;2022-07-15T13:24:19;2.38;;;0.85;;
4569;SDS011;2297;51.442;6.996;2022-07-15T13:26:45;2.53;;;1.40;;
4569;SDS011;2297;51.442;6.996;2022-07-15T13:29:12;1.52;;;0.93;;
4569;SDS011;2297;51.442;6.996;2022-07-15T13:31:39;4.07;;;1.27;;
4569;SDS011;2297;51.442;6.996;2022-07-15T13:34:07;1.02;;;0.80;;
4569;SDS011;2297;51.442;6.996;2022-07-15T13:36:33;1.25;;;0.80;;
4569;SDS011;2297;51.442;6.996;2022-07-15T13:39:01;2.00;;;0.80;;
4569;SDS011;2297;51.442;6.996;2022-07-15T13:41:28;1.33;;;0.75;;
4569;SDS011;2297;51.442;6.996;2022-07-15T13:43:55;1.83;;;1.02;;
4569;SDS011;2297;51.442;6.996;2022-07-15T13:46:22;1.30;;;0.80;;
4569;SDS011;2297;51.442;6.996;2022-07-15T13:48:48;1.50;;;0.75;;
4569;SDS011;2297;51.442;6.996;2022-07-15T13:51:16;1.48;;;0.90;;
4569;SDS011;2297;51.442;6.996;2022-07-15T13:53:48;1.90;;;0.90;;
4569;SDS011;2297;51.442;6.996;2022-07-15T13:56:16;2.60;;;0.90;;
4569;SDS011;2297;51.442;6.996;2022-07-15T13:58:43;2.70;;;0.90;;
4569;SDS011;2297;51.442;6.996;2022-07-15T14:01:09;1.90;;;1.33;;
4569;SDS011;2297;51.442;6.996;2022-07-15T14:03:36;2.45;;;0.90;;
4569;SDS011;2297;51.442;6.996;2022-07-15T14:06:03;2.10;;;1.00;;
4569;SDS011;2297;51.442;6.996;2022-07-15T14:08:31;1.80;;;0.90;;
4569;SDS011;2297;51.442;6.996;2022-07-15T14:10:58;1.40;;;0.85;;
4569;SDS011;2297;51.442;6.996;2022-07-15T14:13:25;0.70;;;0.70;;
4569;SDS011;2297;51.442;6.996;2022-07-15T14:15:51;2.40;;;0.77;;
4569;SDS011;2297;51.442;6.996;2022-07-15T14:18:18;2.03;;;0.90;;
4569;SDS011;2297;51.442;6.996;2022-07-15T14:21:05;2.05;;;0.70;;
4569;SDS011;2297;51.442;6.996;2022-07-15T14:23:33;1.17;;;0.75;;
4569;SDS011;2297;51.442;6.996;2022-07-15T14:25:59;1.42;;;0.77;;
4569;SDS011;2297;51.442;6.996;2022-07-15T14:28:26;2.30;;;1.00;;
4569;SDS011;2297;51.442;6.996;2022-07-15T14:30:53;1.02;;;0.90;;
4569;SDS011;2297;51.442;6.996;2022-07-15T14:33:19;1.88;;;0.68;;
4569;SDS011;2297;51.442;6.996;2022-07-15T14:35:46;2.08;;;0.80;;
4569;SDS011;2297;51.442;6.996;2022-07-15T14:38:13;1.17;;;0.88;;
4569;SDS011;2297;51.442;6.996;2022-07-15T14:40:41;1.38;;;0.90;;
4569;SDS011;2297;51.442;6.996;2022-07-15T14:43:07;2.05;;;1.00;;
4569;SDS011;2297;51.442;6.996;2022-07-15T14:45:34;3.13;;;0.93;;
4569;SDS011;2297;51.442;6.996;2022-07-15T14:48:01;2.08;;;0.90;;
4569;SDS011;2297;51.442;6.996;2022-07-15T14:50:28;1.75;;;0.80;;
4569;SDS011;2297;51.442;6.996;2022-07-15T14:52:54;3.13;;;1.05;;
4569;SDS011;2297;51.442;6.996;2022-07-15T14:55:21;3.75;;;0.80;;
4569;SDS011;2297;51.442;6.996;2022-07-15T14:57:49;1.33;;;0.75;;
4569;SDS011;2297;51.442;6.996;2022-07-15T15:00:16;2.95;;;1.17;;
4569;SDS011;2297;51.442;6.996;2022-07-15T15:02:42;1.90;;;1.10;;
4569;SDS011;2297;51.442;6.996;2022-07-15T15:05:09;2.05;;;0.88;;
4569;SDS011;2297;51.442;6.996;2022-07-15T15:07:36;1.08;;;0.60;;
4569;SDS011;2297;51.442;6.996;2022-07-15T15:10:03;5.60;;;1.00;;
4569;SDS011;2297;51.442;6.996;2022-07-15T15:12:30;1.85;;;1.00;;
4569;SDS011;2297;51.442;6.996;2022-07-15T15:14:58;1.20;;;0.60;;
4569;SDS011;2297;51.442;6.996;2022-07-15T15:17:25;1.90;;;0.90;;
4569;SDS011;2297;51.442;6.996;2022-07-15T15:19:51;2.00;;;0.75;;
4569;SDS011;2297;51.442;6.996;2022-07-15T15:22:18;3.65;;;1.00;;
4569;SDS011;2297;51.442;6.996;2022-07-15T15:24:45;3.55;;;0.98;;
4569;SDS011;2297;51.442;6.996;2022-07-15T15:27:11;2.58;;;0.95;;
4569;SDS011;2297;51.442;6.996;2022-07-15T15:29:40;2.33;;;1.00;;
4569;SDS011;2297;51.442;6.996;2022-07-15T15:32:08;2.78;;;0.90;;
4569;SDS011;2297;51.442;6.996;2022-07-15T15:34:37;1.92;;;1.00;;
4569;SDS011;2297;51.442;6.996;2022-07-15T15:37:05;2.53;;;0.80;;
4569;SDS011;2297;51.442;6.996;2022-07-15T15:39:32;1.40;;;0.90;;